createdAt,value
2018-04-29T00:00:37.876Z,88.75
2018-04-29T00:01:45.095Z,88.58
2018-04-29T00:02:52.227Z,90.64
2018-04-29T00:03:58.596Z,90.72
2018-04-29T00:05:04.185Z,92.50
2018-04-29T00:06:10.467Z,91.89
2018-04-29T00:07:16.777Z,90.87
2018-04-29T00:08:23.110Z,89.56
2018-04-29T00:09:29.424Z,89.88
2018-04-29T00:10:35.791Z,90.16
2018-04-29T00:11:43.229Z,89.57
2018-04-29T00:12:49.568Z,89.78
2018-04-29T00:13:55.908Z,89.21
2018-04-29T00:15:02.196Z,89.61
2018-04-29T00:16:10.603Z,89.28
2018-04-29T00:17:16.831Z,89.97
2018-04-29T00:18:27.980Z,90.83
2018-04-29T00:19:34.938Z,90.52
2018-04-29T00:20:41.201Z,90.01
2018-04-29T00:21:47.415Z,90.42
2018-04-29T00:22:53.715Z,91.41
2018-04-29T00:24:00.053Z,91.34
2018-04-29T00:25:06.388Z,91.60
2018-04-29T00:26:12.675Z,92.93
2018-04-29T00:27:18.941Z,92.71
2018-04-29T00:28:25.401Z,92.33
2018-04-29T00:29:31.739Z,91.20
2018-04-29T00:30:38.563Z,91.12
2018-04-29T00:31:44.834Z,91.05
2018-04-29T00:32:54.198Z,91.90
2018-04-29T00:34:00.665Z,91.97
2018-04-29T00:35:10.872Z,92.23
2018-04-29T00:36:17.193Z,92.30
2018-04-29T00:37:23.442Z,91.87
2018-04-29T00:38:29.895Z,91.94
2018-04-29T00:39:41.922Z,91.47
2018-04-29T00:40:48.240Z,91.61
2018-04-29T00:41:54.551Z,92.06
2018-04-29T00:43:00.839Z,92.89
2018-04-29T00:44:07.096Z,91.46
2018-04-29T00:45:13.523Z,91.61
2018-04-29T00:46:19.805Z,93.12
2018-04-29T00:47:26.135Z,92.81
2018-04-29T00:48:32.391Z,92.28
2018-04-29T00:49:38.624Z,92.76
2018-04-29T00:50:45.178Z,92.85
2018-04-29T00:52:03.213Z,93.73
2018-04-29T00:53:09.765Z,92.85
2018-04-29T00:54:16.264Z,93.05
2018-04-29T00:55:21.959Z,93.27
2018-04-29T00:56:28.355Z,93.56
2018-04-29T00:57:34.571Z,92.36
2018-04-29T00:58:40.901Z,92.36
2018-04-29T00:59:47.847Z,91.37
2018-04-29T01:00:56.948Z,92.00
2018-04-29T01:02:02.658Z,92.57
2018-04-29T01:03:08.990Z,92.57
2018-04-29T01:04:14.936Z,92.51
2018-04-29T01:05:22.279Z,92.17
2018-04-29T01:06:28.154Z,93.63
2018-04-29T01:07:35.173Z,94.38
2018-04-29T01:08:41.346Z,94.28
2018-04-29T01:09:47.699Z,93.17
2018-04-29T01:10:54.011Z,92.43
2018-04-29T01:12:00.884Z,91.31
2018-04-29T01:13:06.883Z,91.09
2018-04-29T01:14:14.290Z,91.07
2018-04-29T01:15:20.612Z,91.19
2018-04-29T01:16:32.697Z,91.24
2018-04-29T01:17:38.721Z,90.91
2018-04-29T01:18:44.984Z,89.74
2018-04-29T01:19:51.219Z,89.87
2018-04-29T01:20:58.702Z,89.93
2018-04-29T01:22:04.979Z,89.57
2018-04-29T01:23:11.188Z,88.44
2018-04-29T01:24:17.723Z,86.92
2018-04-29T01:25:24.174Z,86.33
2018-04-29T01:26:30.433Z,86.50
2018-04-29T01:27:36.643Z,85.75
2018-04-29T01:28:42.866Z,85.00
2018-04-29T01:29:49.174Z,84.73
2018-04-29T01:30:55.428Z,84.36
2018-04-29T01:32:01.350Z,84.46
2018-04-29T01:33:07.599Z,84.79
2018-04-29T01:34:13.787Z,84.45
2018-04-29T01:35:20.059Z,84.74
2018-04-29T01:36:26.603Z,85.12
2018-04-29T01:37:33.918Z,85.65
2018-04-29T01:38:41.528Z,84.02
2018-04-29T01:39:47.935Z,83.07
2018-04-29T01:40:55.024Z,82.36
2018-04-29T01:42:02.358Z,81.22
2018-04-29T01:43:13.570Z,80.72
2018-04-29T01:44:20.790Z,80.92
2018-04-29T01:45:27.034Z,81.49
2018-04-29T01:46:33.395Z,81.57
2018-04-29T01:47:40.007Z,81.26
2018-04-29T01:48:47.268Z,80.61
2018-04-29T01:49:53.539Z,80.19
2018-04-29T01:50:59.759Z,80.09
2018-04-29T01:52:06.638Z,80.07
2018-04-29T01:53:13.447Z,80.19
2018-04-29T01:54:20.438Z,79.80
2018-04-29T01:55:27.115Z,82.03
2018-04-29T01:56:33.468Z,83.01
2018-04-29T01:57:39.651Z,82.20
2018-04-29T01:58:45.905Z,82.39
2018-04-29T01:59:52.274Z,84.21
2018-04-29T02:00:59.178Z,85.01
2018-04-29T02:02:05.464Z,85.88
2018-04-29T02:03:12.006Z,85.77
2018-04-29T02:04:18.186Z,85.16
2018-04-29T02:05:24.451Z,85.06
2018-04-29T02:06:31.144Z,84.88
2018-04-29T02:07:38.581Z,85.50
2018-04-29T02:08:45.712Z,84.95
2018-04-29T02:09:52.586Z,84.50
2018-04-29T02:10:58.906Z,84.96
2018-04-29T02:12:05.954Z,85.60
2018-04-29T02:13:12.951Z,85.99
2018-04-29T02:14:19.912Z,86.87
2018-04-29T02:15:26.120Z,87.28
2018-04-29T02:16:32.407Z,86.15
2018-04-29T02:17:39.265Z,86.21
2018-04-29T02:18:45.499Z,86.39
2018-04-29T02:19:51.726Z,86.36
2018-04-29T02:20:58.123Z,87.33
2018-04-29T02:22:05.042Z,87.32
2018-04-29T02:23:11.199Z,87.26
2018-04-29T02:24:18.338Z,86.94
2018-04-29T02:25:24.623Z,87.07
2018-04-29T02:26:30.936Z,87.91
2018-04-29T02:27:37.134Z,88.11
2018-04-29T02:28:44.160Z,87.37
2018-04-29T02:29:50.348Z,87.31
2018-04-29T02:30:56.586Z,87.23
2018-04-29T02:32:02.821Z,86.99
2018-04-29T02:33:09.591Z,86.90
2018-04-29T02:34:16.528Z,86.61
2018-04-29T02:35:22.622Z,86.11
2018-04-29T02:36:29.749Z,86.06
2018-04-29T02:37:36.064Z,85.82
2018-04-29T02:38:42.427Z,87.44
2018-04-29T02:39:49.168Z,87.17
2018-04-29T02:41:04.526Z,88.45
2018-04-29T02:42:10.876Z,89.48
2018-04-29T02:43:17.083Z,88.94
2018-04-29T02:44:23.631Z,89.09
2018-04-29T02:45:31.229Z,88.31
2018-04-29T02:46:38.328Z,88.85
2018-04-29T02:47:45.794Z,89.61
2018-04-29T02:48:51.999Z,89.57
2018-04-29T02:49:58.211Z,89.29
2018-04-29T02:51:04.220Z,88.91
2018-04-29T02:52:11.013Z,88.66
2018-04-29T02:53:17.230Z,87.85
2018-04-29T02:54:24.100Z,88.84
2018-04-29T02:55:31.108Z,88.95
2018-04-29T02:56:37.390Z,88.84
2018-04-29T02:57:44.721Z,88.48
2018-04-29T02:58:51.945Z,88.49
2018-04-29T02:59:58.603Z,89.34
2018-04-29T03:01:04.807Z,92.04
2018-04-29T03:02:11.054Z,92.95
2018-04-29T03:03:18.333Z,92.13
2018-04-29T03:04:24.742Z,91.51
2018-04-29T03:05:31.057Z,92.38
2018-04-29T03:06:42.634Z,91.83
2018-04-29T03:07:50.409Z,91.07
2018-04-29T03:08:56.683Z,90.16
2018-04-29T03:10:05.760Z,90.92
2018-04-29T03:11:12.579Z,90.00
2018-04-29T03:12:19.159Z,90.36
2018-04-29T03:13:26.481Z,90.72
2018-04-29T03:14:32.980Z,90.29
2018-04-29T03:15:39.140Z,91.16
2018-04-29T03:16:45.663Z,91.24
2018-04-29T03:17:51.875Z,91.53
2018-04-29T03:18:59.416Z,91.46
2018-04-29T03:20:06.139Z,91.83
2018-04-29T03:21:12.350Z,91.90
2018-04-29T03:22:19.709Z,91.90
2018-04-29T03:23:26.151Z,92.53
2018-04-29T03:24:32.399Z,91.39
2018-04-29T03:25:40.811Z,91.69
2018-04-29T03:26:47.552Z,92.05
2018-04-29T03:27:58.659Z,92.57
2018-04-29T03:29:04.954Z,92.33
2018-04-29T03:30:11.443Z,92.59
2018-04-29T03:31:18.147Z,92.01
2018-04-29T03:32:24.725Z,91.32
2018-04-29T03:33:30.679Z,90.92
2018-04-29T03:34:36.913Z,91.00
2018-04-29T03:35:43.205Z,91.84
2018-04-29T03:36:49.412Z,91.51
2018-04-29T03:37:55.666Z,91.17
2018-04-29T03:39:02.251Z,90.38
2018-04-29T03:40:09.087Z,90.86
2018-04-29T03:41:16.261Z,89.67
2018-04-29T03:42:23.555Z,91.09
2018-04-29T03:43:29.745Z,92.40
2018-04-29T03:44:36.723Z,93.19
2018-04-29T03:45:43.369Z,93.54
2018-04-29T03:46:49.523Z,92.45
2018-04-29T03:47:56.393Z,92.27
2018-04-29T03:49:02.854Z,92.20
2018-04-29T03:50:09.043Z,91.67
2018-04-29T03:51:15.054Z,92.29
2018-04-29T03:52:21.376Z,91.46
2018-04-29T03:53:27.710Z,90.84
2018-04-29T03:54:33.974Z,89.82
2018-04-29T03:55:40.706Z,89.69
2018-04-29T03:56:47.742Z,91.35
2018-04-29T03:58:05.103Z,90.73
2018-04-29T03:59:23.286Z,89.47
2018-04-29T04:00:45.251Z,89.21
2018-04-29T04:02:02.991Z,89.21
2018-04-29T04:03:20.234Z,89.92
2018-04-29T04:04:26.190Z,90.21
2018-04-29T04:05:32.201Z,90.15
2018-04-29T04:06:38.388Z,90.14
2018-04-29T04:07:44.276Z,90.47
2018-04-29T04:08:50.539Z,90.61
2018-04-29T04:09:59.919Z,89.79
2018-04-29T04:11:05.850Z,89.95
2018-04-29T04:12:11.799Z,90.23
2018-04-29T04:13:18.335Z,90.67
2018-04-29T04:14:25.470Z,90.19
2018-04-29T04:15:31.759Z,90.82
2018-04-29T04:16:38.283Z,92.30
2018-04-29T04:17:45.143Z,92.17
2018-04-29T04:18:51.424Z,90.83
2018-04-29T04:19:57.394Z,91.94
2018-04-29T04:21:03.627Z,92.60
2018-04-29T04:22:09.827Z,93.06
2018-04-29T04:23:16.052Z,92.59
2018-04-29T04:24:23.465Z,92.43
2018-04-29T04:25:29.692Z,92.53
2018-04-29T04:26:35.891Z,92.95
2018-04-29T04:27:42.206Z,92.33
2018-04-29T04:28:48.144Z,94.08
2018-04-29T04:29:54.432Z,95.16
2018-04-29T04:31:00.639Z,94.39
2018-04-29T04:32:06.879Z,94.26
2018-04-29T04:33:13.907Z,93.50
2018-04-29T04:34:20.717Z,93.34
2018-04-29T04:35:27.042Z,93.54
2018-04-29T04:36:33.335Z,93.17
2018-04-29T04:37:39.560Z,92.90
2018-04-29T04:38:45.868Z,92.87
2018-04-29T04:39:52.226Z,92.53
2018-04-29T04:40:58.467Z,92.90
2018-04-29T04:42:04.726Z,92.67
2018-04-29T04:43:12.323Z,92.84
2018-04-29T04:44:20.722Z,93.83
2018-04-29T04:45:27.292Z,93.36
2018-04-29T04:46:34.325Z,93.72
2018-04-29T04:47:41.600Z,94.24
2018-04-29T04:48:49.624Z,94.61
2018-04-29T04:49:56.708Z,94.60
2018-04-29T04:51:03.642Z,95.57
2018-04-29T04:52:10.356Z,96.16
2018-04-29T04:53:17.282Z,96.72
2018-04-29T04:54:24.823Z,97.88
2018-04-29T04:55:31.425Z,96.54
2018-04-29T04:56:38.110Z,95.82
2018-04-29T04:57:46.417Z,96.47
2018-04-29T04:58:53.648Z,98.13
2018-04-29T05:00:00.282Z,98.87
2018-04-29T05:01:08.052Z,98.93
2018-04-29T05:02:14.561Z,97.77
2018-04-29T05:03:23.619Z,98.34
2018-04-29T05:04:30.007Z,97.82
2018-04-29T05:05:36.358Z,99.40
2018-04-29T05:06:42.616Z,99.92
2018-04-29T05:07:48.875Z,99.82
2018-04-29T05:08:55.119Z,99.54
2018-04-29T05:10:01.834Z,98.69
2018-04-29T05:11:09.035Z,99.10
2018-04-29T05:12:17.168Z,100.00
2018-04-29T05:13:23.622Z,100.00
2018-04-29T05:14:30.160Z,98.65
2018-04-29T05:15:36.903Z,98.20
2018-04-29T05:16:43.543Z,97.84
2018-04-29T05:17:49.729Z,98.56
2018-04-29T05:18:56.199Z,98.65
2018-04-29T05:20:02.946Z,99.09
2018-04-29T05:21:09.324Z,99.78
2018-04-29T05:22:15.972Z,100.00
2018-04-29T05:23:22.747Z,98.65
2018-04-29T05:24:29.159Z,98.73
2018-04-29T05:25:37.212Z,99.09
2018-04-29T05:26:44.682Z,98.97
2018-04-29T05:27:51.165Z,99.30
2018-04-29T05:28:57.426Z,99.45
2018-04-29T05:30:04.306Z,100.00
2018-04-29T05:31:11.332Z,100.00
2018-04-29T05:32:17.851Z,99.78
2018-04-29T05:33:30.198Z,99.00
2018-04-29T05:34:36.483Z,99.55
2018-04-29T05:35:43.051Z,99.51
2018-04-29T05:36:49.362Z,98.92
2018-04-29T05:37:56.877Z,98.61
2018-04-29T05:39:03.632Z,99.15
2018-04-29T05:40:10.358Z,100.00
2018-04-29T05:41:16.786Z,99.06
2018-04-29T05:42:23.528Z,98.76
2018-04-29T05:43:31.049Z,99.97
2018-04-29T05:44:37.865Z,100.00
2018-04-29T05:45:44.756Z,100.00
2018-04-29T05:46:50.632Z,100.00
2018-04-29T05:47:57.012Z,100.00
2018-04-29T05:49:03.080Z,99.57
2018-04-29T05:50:09.537Z,98.89
2018-04-29T05:51:16.542Z,99.84
2018-04-29T05:52:24.027Z,99.63
2018-04-29T05:53:30.272Z,97.54
2018-04-29T05:54:39.549Z,97.05
2018-04-29T05:55:50.409Z,96.80
2018-04-29T05:56:57.101Z,97.05
2018-04-29T05:58:03.575Z,96.70
2018-04-29T05:59:12.967Z,95.92
2018-04-29T06:00:19.533Z,95.96
2018-04-29T06:01:27.029Z,98.41
2018-04-29T06:02:34.490Z,98.59
2018-04-29T06:03:41.040Z,99.86
2018-04-29T06:04:47.359Z,100.00
2018-04-29T06:05:54.817Z,100.00
2018-04-29T06:07:01.511Z,100.00
2018-04-29T06:08:08.162Z,100.00
2018-04-29T06:09:15.388Z,98.87
2018-04-29T06:10:21.636Z,97.77
2018-04-29T06:11:28.718Z,96.22
2018-04-29T06:12:35.169Z,95.49
2018-04-29T06:13:41.398Z,95.86
2018-04-29T06:14:47.922Z,95.15
2018-04-29T06:15:54.405Z,97.19
2018-04-29T06:17:01.432Z,97.29
2018-04-29T06:18:08.767Z,97.43
2018-04-29T06:19:14.712Z,96.95
2018-04-29T06:20:20.995Z,97.87
2018-04-29T06:21:27.494Z,97.55
2018-04-29T06:22:33.683Z,97.29
2018-04-29T06:23:40.024Z,97.20
2018-04-29T06:24:46.458Z,95.69
2018-04-29T06:25:53.200Z,95.12
2018-04-29T06:26:59.955Z,94.73
2018-04-29T06:28:06.765Z,92.52
2018-04-29T06:29:13.164Z,91.98
2018-04-29T06:30:19.371Z,92.85
2018-04-29T06:31:27.167Z,92.24
2018-04-29T06:32:33.919Z,92.96
2018-04-29T06:33:41.342Z,91.87
2018-04-29T06:34:48.053Z,91.81
2018-04-29T06:35:54.595Z,92.28
2018-04-29T06:37:01.384Z,92.84
2018-04-29T06:38:08.419Z,92.14
2018-04-29T06:39:15.367Z,91.02
2018-04-29T06:40:22.067Z,92.42
2018-04-29T06:41:28.784Z,92.23
2018-04-29T06:42:36.579Z,92.55
2018-04-29T06:43:44.687Z,91.41
2018-04-29T06:44:51.699Z,90.62
2018-04-29T06:45:58.375Z,90.20
2018-04-29T06:47:04.654Z,89.77
2018-04-29T06:48:13.621Z,87.68
2018-04-29T06:49:25.377Z,88.50
2018-04-29T06:50:32.274Z,86.96
2018-04-29T06:51:39.611Z,84.88
2018-04-29T06:52:46.132Z,82.98
2018-04-29T06:53:52.939Z,82.39
2018-04-29T06:54:59.202Z,83.16
2018-04-29T06:56:05.114Z,82.82
2018-04-29T06:57:11.510Z,82.58
2018-04-29T06:58:17.763Z,81.45
2018-04-29T06:59:24.042Z,80.77
2018-04-29T07:00:30.374Z,80.05
2018-04-29T07:01:36.651Z,81.63
2018-04-29T07:02:43.515Z,80.09
2018-04-29T07:03:50.441Z,79.30
2018-04-29T07:04:57.432Z,78.97
2018-04-29T07:06:03.784Z,78.88
2018-04-29T07:07:10.052Z,78.74
2018-04-29T07:08:16.375Z,79.12
2018-04-29T07:09:22.874Z,78.28
2018-04-29T07:10:29.966Z,76.41
2018-04-29T07:11:36.237Z,76.80
2018-04-29T07:12:42.476Z,74.81
2018-04-29T07:13:48.786Z,75.26
2018-04-29T07:14:55.091Z,78.12
2018-04-29T07:16:01.991Z,80.21
2018-04-29T07:17:08.247Z,78.56
2018-04-29T07:18:20.014Z,77.56
2018-04-29T07:19:27.945Z,78.10
2018-04-29T07:20:34.786Z,80.09
2018-04-29T07:21:41.035Z,78.36
2018-04-29T07:22:47.307Z,79.29
2018-04-29T07:23:53.639Z,77.02
2018-04-29T07:24:59.843Z,76.94
2018-04-29T07:26:06.092Z,79.38
2018-04-29T07:27:12.475Z,78.64
2018-04-29T07:28:18.806Z,78.24
2018-04-29T07:29:25.124Z,79.61
2018-04-29T07:30:31.286Z,78.46
2018-04-29T07:31:37.522Z,79.11
2018-04-29T07:32:43.708Z,79.78
2018-04-29T07:33:50.030Z,75.32
2018-04-29T07:34:56.254Z,73.41
2018-04-29T07:36:03.298Z,72.97
2018-04-29T07:37:09.575Z,72.72
2018-04-29T07:38:15.770Z,74.17
2018-04-29T07:39:21.986Z,69.25
2018-04-29T07:40:28.925Z,67.45
2018-04-29T07:41:35.144Z,68.78
2018-04-29T07:42:41.375Z,69.86
2018-04-29T07:43:47.658Z,68.67
2018-04-29T07:44:53.875Z,70.46
2018-04-29T07:46:00.084Z,70.92
2018-04-29T07:47:06.319Z,70.00
2018-04-29T07:48:12.499Z,71.50
2018-04-29T07:49:19.353Z,73.31
2018-04-29T07:50:25.646Z,71.62
2018-04-29T07:51:31.989Z,68.99
2018-04-29T07:52:38.362Z,69.01
2018-04-29T07:53:44.751Z,67.60
2018-04-29T07:54:51.089Z,67.56
2018-04-29T07:55:57.308Z,66.50
2018-04-29T07:57:03.541Z,67.65
2018-04-29T07:58:09.809Z,66.86
2018-04-29T07:59:16.176Z,66.73
2018-04-29T08:00:23.442Z,67.91
2018-04-29T08:01:29.714Z,65.77
2018-04-29T08:02:35.976Z,67.18
2018-04-29T08:03:42.179Z,66.85
2018-04-29T08:04:48.429Z,67.19
2018-04-29T08:05:54.719Z,68.79
2018-04-29T08:07:00.898Z,63.60
2018-04-29T08:08:07.128Z,61.01
2018-04-29T08:09:13.340Z,62.92
2018-04-29T08:10:19.539Z,62.21
2018-04-29T08:11:28.004Z,64.37
2018-04-29T08:12:34.866Z,64.51
2018-04-29T08:13:41.715Z,65.59
2018-04-29T08:14:48.607Z,61.07
2018-04-29T08:15:54.818Z,62.13
2018-04-29T08:17:01.007Z,62.24
2018-04-29T08:18:06.883Z,62.98
2018-04-29T08:19:13.111Z,62.34
2018-04-29T08:20:21.886Z,61.35
2018-04-29T08:21:33.916Z,60.62
2018-04-29T08:22:40.182Z,56.65
2018-04-29T08:23:46.579Z,54.05
2018-04-29T08:24:52.891Z,53.89
2018-04-29T08:25:59.172Z,55.33
2018-04-29T08:27:05.656Z,54.09
2018-04-29T08:28:11.907Z,54.88
2018-04-29T08:29:18.094Z,54.39
2018-04-29T08:30:24.432Z,54.35
2018-04-29T08:31:30.666Z,53.49
2018-04-29T08:32:36.844Z,52.52
2018-04-29T08:33:43.181Z,50.75
2018-04-29T08:34:49.351Z,50.97
2018-04-29T08:35:55.578Z,50.60
2018-04-29T08:37:01.844Z,51.86
2018-04-29T08:38:08.104Z,52.40
2018-04-29T08:39:14.333Z,51.76
2018-04-29T08:40:20.268Z,50.61
2018-04-29T08:41:26.511Z,52.44
2018-04-29T08:42:41.821Z,51.67
2018-04-29T08:43:49.312Z,52.53
2018-04-29T08:44:55.627Z,53.84
2018-04-29T08:46:01.838Z,52.38
2018-04-29T08:47:08.150Z,51.07
2018-04-29T08:48:14.450Z,52.85
2018-04-29T08:49:20.755Z,53.55
2018-04-29T08:50:27.068Z,52.42
2018-04-29T08:51:33.280Z,52.49
2018-04-29T08:52:39.478Z,53.88
2018-04-29T08:53:45.364Z,52.01
2018-04-29T08:54:51.657Z,51.89
2018-04-29T08:55:58.173Z,54.15
2018-04-29T08:57:04.551Z,52.77
2018-04-29T08:58:11.302Z,51.05
2018-04-29T08:59:18.360Z,53.41
2018-04-29T09:00:24.582Z,53.54
2018-04-29T09:01:30.812Z,50.68
2018-04-29T09:02:37.148Z,50.98
2018-04-29T09:03:46.113Z,50.48
2018-04-29T09:04:53.483Z,48.06
2018-04-29T09:05:59.721Z,50.74
2018-04-29T09:07:05.730Z,48.38
2018-04-29T09:08:11.936Z,48.40
2018-04-29T09:09:18.101Z,47.63
2018-04-29T09:10:24.354Z,48.40
2018-04-29T09:11:30.638Z,50.96
2018-04-29T09:12:36.888Z,48.48
2018-04-29T09:13:43.854Z,49.71
2018-04-29T09:14:50.686Z,49.76
2018-04-29T09:15:56.986Z,50.04
2018-04-29T09:17:03.274Z,48.29
2018-04-29T09:18:10.291Z,47.17
2018-04-29T09:19:16.598Z,48.98
2018-04-29T09:20:22.417Z,48.68
2018-04-29T09:21:28.707Z,48.06
2018-04-29T09:22:34.891Z,49.12
2018-04-29T09:23:41.123Z,49.70
2018-04-29T09:24:47.321Z,49.90
2018-04-29T09:25:54.604Z,48.89
2018-04-29T09:27:00.858Z,50.03
2018-04-29T09:28:08.116Z,50.31
2018-04-29T09:29:14.653Z,49.63
2018-04-29T09:30:21.122Z,49.57
2018-04-29T09:31:27.342Z,48.01
2018-04-29T09:32:33.588Z,49.32
2018-04-29T09:33:39.891Z,50.78
2018-04-29T09:34:46.076Z,51.17
2018-04-29T09:35:52.238Z,49.69
2018-04-29T09:36:58.513Z,49.43
2018-04-29T09:38:05.686Z,50.02
2018-04-29T09:39:13.360Z,51.74
2018-04-29T09:40:19.333Z,48.92
2018-04-29T09:41:25.688Z,51.83
2018-04-29T09:42:31.937Z,51.16
2018-04-29T09:43:38.316Z,50.35
2018-04-29T09:44:44.749Z,48.57
2018-04-29T09:45:51.456Z,49.17
2018-04-29T09:46:57.687Z,50.10
2018-04-29T09:48:04.250Z,51.42
2018-04-29T09:49:10.278Z,50.02
2018-04-29T09:50:17.244Z,49.26
2018-04-29T09:51:23.704Z,50.93
2018-04-29T09:52:30.657Z,51.15
2018-04-29T09:53:36.905Z,52.22
2018-04-29T09:54:43.210Z,51.75
2018-04-29T09:55:49.490Z,49.29
2018-04-29T09:56:55.674Z,51.41
2018-04-29T09:58:02.665Z,47.81
2018-04-29T09:59:08.833Z,49.25
2018-04-29T10:00:14.548Z,50.63
2018-04-29T10:01:25.827Z,51.94
2018-04-29T10:02:32.053Z,49.99
2018-04-29T10:03:39.498Z,50.51
2018-04-29T10:04:45.704Z,52.52
2018-04-29T10:05:51.699Z,51.22
2018-04-29T10:06:57.926Z,48.57
2018-04-29T10:08:04.276Z,48.49
2018-04-29T10:09:10.457Z,50.14
2018-04-29T10:10:16.654Z,48.98
2018-04-29T10:11:22.869Z,49.25
2018-04-29T10:12:29.029Z,50.83
2018-04-29T10:13:35.411Z,50.13
2018-04-29T10:14:41.606Z,49.93
2018-04-29T10:15:47.818Z,51.39
2018-04-29T10:16:54.060Z,50.14
2018-04-29T10:18:00.362Z,52.79
2018-04-29T10:19:06.573Z,50.18
2018-04-29T10:20:12.891Z,48.98
2018-04-29T10:21:19.969Z,50.14
2018-04-29T10:22:26.911Z,50.23
2018-04-29T10:23:33.764Z,51.58
2018-04-29T10:24:40.083Z,50.25
2018-04-29T10:25:46.568Z,50.59
2018-04-29T10:26:56.540Z,49.67
2018-04-29T10:28:04.808Z,49.77
2018-04-29T10:29:11.027Z,50.34
2018-04-29T10:30:17.231Z,50.38
2018-04-29T10:31:23.468Z,49.13
2018-04-29T10:32:29.787Z,48.74
2018-04-29T10:33:35.930Z,48.44
2018-04-29T10:34:42.673Z,49.78
2018-04-29T10:35:49.004Z,50.94
2018-04-29T10:36:55.895Z,51.11
2018-04-29T10:38:02.279Z,51.82
2018-04-29T10:39:08.244Z,49.87
2018-04-29T10:40:14.459Z,48.47
2018-04-29T10:41:20.426Z,49.07
2018-04-29T10:42:26.532Z,48.54
2018-04-29T10:43:33.418Z,49.24
2018-04-29T10:44:39.881Z,49.85
2018-04-29T10:45:46.767Z,49.40
2018-04-29T10:46:53.082Z,47.65
2018-04-29T10:48:00.866Z,50.08
2018-04-29T10:49:06.718Z,49.42
2018-04-29T10:50:13.019Z,48.35
2018-04-29T10:51:19.349Z,48.75
2018-04-29T10:52:26.294Z,50.49
2018-04-29T10:53:33.402Z,50.94
2018-04-29T10:54:40.094Z,49.94
2018-04-29T10:55:46.370Z,49.63
2018-04-29T10:56:52.283Z,47.60
2018-04-29T10:57:58.491Z,49.08
2018-04-29T10:59:04.754Z,47.85
2018-04-29T11:00:10.834Z,47.49
2018-04-29T11:01:17.043Z,48.71
2018-04-29T11:02:23.000Z,48.82
2018-04-29T11:03:29.249Z,49.28
2018-04-29T11:04:35.886Z,50.75
2018-04-29T11:05:42.171Z,48.41
2018-04-29T11:06:48.412Z,49.22
2018-04-29T11:07:54.587Z,49.62
2018-04-29T11:10:16.800Z,50.39
2018-04-29T11:11:23.065Z,49.76
2018-04-29T11:12:29.311Z,49.38
2018-04-29T11:13:35.637Z,49.85
2018-04-29T11:14:41.681Z,51.13
2018-04-29T11:15:47.934Z,49.73
2018-04-29T11:16:54.195Z,51.28
2018-04-29T11:18:00.199Z,48.92
2018-04-29T11:19:06.543Z,49.89
2018-04-29T11:20:12.773Z,49.51
2018-04-29T11:21:19.040Z,48.57
2018-04-29T11:22:25.385Z,48.50
2018-04-29T11:23:31.752Z,49.51
2018-04-29T11:24:39.078Z,47.98
2018-04-29T11:25:45.423Z,49.01
2018-04-29T11:26:51.620Z,50.46
2018-04-29T11:27:57.927Z,50.42
2018-04-29T11:29:04.259Z,47.79
2018-04-29T11:30:10.721Z,48.61
2018-04-29T11:31:17.186Z,49.13
2018-04-29T11:32:24.048Z,49.80
2018-04-29T11:33:30.335Z,50.47
2018-04-29T11:34:36.621Z,49.55
2018-04-29T11:35:43.467Z,52.17
2018-04-29T11:36:49.679Z,50.54
2018-04-29T11:37:55.880Z,50.52
2018-04-29T11:39:03.247Z,50.04
2018-04-29T11:40:09.719Z,49.99
2018-04-29T11:41:15.935Z,49.71
2018-04-29T11:42:22.824Z,49.13
2018-04-29T11:43:29.078Z,50.10
2018-04-29T11:44:34.979Z,49.35
2018-04-29T11:45:41.500Z,55.19
2018-04-29T11:46:47.739Z,50.99
2018-04-29T11:47:53.956Z,48.11
2018-04-29T11:49:00.232Z,48.57
2018-04-29T11:50:06.459Z,50.30
2018-04-29T11:51:17.738Z,49.82
2018-04-29T11:52:24.635Z,50.29
2018-04-29T11:53:30.970Z,49.88
2018-04-29T11:54:37.239Z,49.71
2018-04-29T11:55:43.527Z,50.18
2018-04-29T11:56:50.596Z,49.71
2018-04-29T11:57:56.849Z,49.94
2018-04-29T11:59:03.077Z,48.84
2018-04-29T12:00:09.313Z,49.23
2018-04-29T12:01:16.293Z,50.46
2018-04-29T12:02:22.723Z,49.49
2018-04-29T12:03:28.931Z,50.65
2018-04-29T12:04:35.185Z,50.73
2018-04-29T12:05:42.699Z,49.37
2018-04-29T12:06:49.651Z,48.96
2018-04-29T12:07:55.904Z,49.04
2018-04-29T12:09:02.140Z,49.85
2018-04-29T12:10:08.735Z,50.29
2018-04-29T12:11:14.969Z,49.90
2018-04-29T12:12:22.168Z,48.92
2018-04-29T12:13:31.431Z,50.67
2018-04-29T12:14:38.319Z,46.85
2018-04-29T12:15:44.652Z,46.81
2018-04-29T12:16:50.931Z,47.16
2018-04-29T12:17:57.156Z,47.63
2018-04-29T12:19:03.479Z,47.63
2018-04-29T12:20:09.810Z,48.00
2018-04-29T12:21:16.071Z,47.73
2018-04-29T12:22:22.389Z,48.78
2018-04-29T12:23:28.703Z,45.55
2018-04-29T12:24:34.970Z,44.66
2018-04-29T12:25:41.531Z,45.70
2018-04-29T12:26:47.725Z,45.03
2018-04-29T12:27:53.859Z,43.61
2018-04-29T12:28:59.850Z,43.21
2018-04-29T12:30:06.074Z,43.95
2018-04-29T12:31:13.084Z,43.15
2018-04-29T12:32:20.591Z,42.40
2018-04-29T12:33:29.899Z,42.32
2018-04-29T12:34:36.103Z,42.68
2018-04-29T12:35:42.325Z,40.32
2018-04-29T12:36:48.526Z,42.57
2018-04-29T12:37:55.874Z,43.11
2018-04-29T12:39:02.074Z,42.68
2018-04-29T12:40:08.120Z,42.74
2018-04-29T12:41:14.468Z,42.95
2018-04-29T12:42:20.648Z,42.34
2018-04-29T12:43:27.117Z,42.94
2018-04-29T12:44:33.859Z,42.00
2018-04-29T12:45:40.082Z,41.43
2018-04-29T12:46:46.911Z,42.80
2018-04-29T12:47:54.264Z,42.46
2018-04-29T12:49:00.515Z,42.01
2018-04-29T12:50:06.853Z,43.71
2018-04-29T12:51:13.191Z,42.94
2018-04-29T12:52:19.498Z,43.20
2018-04-29T12:53:25.972Z,41.75
2018-04-29T12:54:32.203Z,42.73
2018-04-29T12:55:38.491Z,42.03
2018-04-29T12:56:44.815Z,42.39
2018-04-29T12:57:51.001Z,41.87
2018-04-29T12:58:57.325Z,42.84
2018-04-29T13:00:03.705Z,43.00
2018-04-29T13:01:10.135Z,42.96
2018-04-29T13:02:17.719Z,43.14
2018-04-29T13:03:24.337Z,42.52
2018-04-29T13:04:30.523Z,43.63
2018-04-29T13:05:37.394Z,41.89
2018-04-29T13:06:44.340Z,42.00
2018-04-29T13:07:50.587Z,43.08
2018-04-29T13:08:56.973Z,43.38
2018-04-29T13:10:03.576Z,42.10
2018-04-29T13:11:09.890Z,41.28
2018-04-29T13:12:16.170Z,41.79
2018-04-29T13:13:22.376Z,42.72
2018-04-29T13:14:28.384Z,42.72
2018-04-29T13:15:35.222Z,42.77
2018-04-29T13:16:42.059Z,43.00
2018-04-29T13:17:48.967Z,42.95
2018-04-29T13:18:56.884Z,43.40
2018-04-29T13:20:02.871Z,43.21
2018-04-29T13:21:09.181Z,42.54
2018-04-29T13:22:15.417Z,43.03
2018-04-29T13:23:21.663Z,43.63
2018-04-29T13:24:28.544Z,45.83
2018-04-29T13:25:34.877Z,43.76
2018-04-29T13:26:41.161Z,44.22
2018-04-29T13:27:47.381Z,44.18
2018-04-29T13:28:54.138Z,44.54
2018-04-29T13:30:00.975Z,44.97
2018-04-29T13:31:08.062Z,44.57
2018-04-29T13:32:14.308Z,43.87
2018-04-29T13:33:20.583Z,43.63
2018-04-29T13:34:26.589Z,44.39
2018-04-29T13:35:35.688Z,44.79
2018-04-29T13:36:43.166Z,44.42
2018-04-29T13:37:49.982Z,44.93
2018-04-29T13:38:56.166Z,42.98
2018-04-29T13:40:02.479Z,42.32
2018-04-29T13:41:08.836Z,44.16
2018-04-29T13:42:15.634Z,43.89
2018-04-29T13:43:22.942Z,44.97
2018-04-29T13:44:30.699Z,46.03
2018-04-29T13:45:38.836Z,44.18
2018-04-29T13:46:50.516Z,44.41
2018-04-29T13:47:59.291Z,44.99
2018-04-29T13:49:08.196Z,45.55
2018-04-29T13:50:15.755Z,44.55
2018-04-29T13:51:23.184Z,45.18
2018-04-29T13:52:30.163Z,45.27
2018-04-29T13:53:37.683Z,45.12
2018-04-29T13:54:46.161Z,46.15
2018-04-29T13:55:54.311Z,45.19
2018-04-29T13:57:02.930Z,45.51
2018-04-29T13:58:10.316Z,45.12
2018-04-29T13:59:18.595Z,44.43
2018-04-29T14:00:25.018Z,44.21
2018-04-29T14:01:31.840Z,44.29
2018-04-29T14:02:38.446Z,44.09
2018-04-29T14:03:44.385Z,44.29
2018-04-29T14:04:50.825Z,44.10
2018-04-29T14:05:57.671Z,44.64
2018-04-29T14:07:04.469Z,44.95
2018-04-29T14:08:11.933Z,45.29
2018-04-29T14:09:19.218Z,44.53
2018-04-29T14:10:25.345Z,45.17
2018-04-29T14:11:32.085Z,45.58
2018-04-29T14:12:40.655Z,43.96
2018-04-29T14:13:47.048Z,45.37
2018-04-29T14:14:53.387Z,45.13
2018-04-29T14:16:00.456Z,45.09
2018-04-29T14:17:06.728Z,44.74
2018-04-29T14:18:13.822Z,45.14
2018-04-29T14:19:21.399Z,44.12
2018-04-29T14:20:29.456Z,44.35
2018-04-29T14:21:36.593Z,44.09